Pagina principale
METAR-TAF:

METAR-TAF

Aeroporti :

Al Wajh, Arabia Saudita

latitudine: 26-12N, longitudine: 036-28E, altezza: 20 m

Osservazione

Il bollettino è stato emesso 1 ora e 3 minuti fa, alle 16:00 UTC
Vento 12 kt da nord-ovest
Temperature 32°C
Umidità 63%
Pressione 1008 hPa
Visibilità 10 km o più
nessuna nube inferiore a 1500 m e nessun cumulonembo

METAR: OEWJ 181600Z 31012KT CAVOK 32/24 Q1008 NOSIG

Ora: 20:03 (17:03 UTC)

Previsione

Il bollettino è stato emesso 6 ore e 3 minuti fa, alle 11:00 UTC
Previsione valida dal 18 alle 12 UTC al 19 alle 18 UTC
Vento 14 kt da nord/nord-ovest
Visibilità 10 km o più
nessuna nube inferiore a 1500 m e nessun cumulonembo
Evoluzione graduale
dal 18 alle 18 UTC al 18 alle 20 UTC
Vento 3 kt da direzioni variabili

TAF: OEWJ 181100Z 1812/1918 33014KT CAVOK BECMG 1818/1820 VRB03KT

Osservazioni e previsioni meteorologiche di più di 4000 aeroporti (messaggi METAR e TAF).

Le stazioni disponibili sono rappresentate dai dischi gialli e rossi sulla carta.

Puntare il mouse per vedere il nome della stazione.

Clicca sopra per visualizzare le osservazioni e previsioni meteorologiche.

Per cambiare la mappa : fare clic sui pulsanti verdi con una croce nera per ingrandire, il pulsante verde con un trattino per diminuire, o sulla freccia verde per le mappe adiacenti.


METAR-TAF: